sensor_id;sensor_type;location;lat;lon;timestamp;temperature;humidity
25753;DHT22;13600;50.816;4.416;2023-07-28T00:02:21;18.80;99.90
25753;DHT22;13600;50.816;4.416;2023-07-28T00:04:46;18.80;99.90
25753;DHT22;13600;50.816;4.416;2023-07-28T00:07:12;18.80;99.90
25753;DHT22;13600;50.816;4.416;2023-07-28T00:09:37;18.70;99.90
25753;DHT22;13600;50.816;4.416;2023-07-28T00:12:03;18.70;99.90
25753;DHT22;13600;50.816;4.416;2023-07-28T00:14:29;18.70;99.90
25753;DHT22;13600;50.816;4.416;2023-07-28T00:16:56;18.70;99.90
25753;DHT22;13600;50.816;4.416;2023-07-28T00:19:22;18.80;99.90
25753;DHT22;13600;50.816;4.416;2023-07-28T00:21:48;18.80;99.90
25753;DHT22;13600;50.816;4.416;2023-07-28T00:24:15;18.70;99.90
25753;DHT22;13600;50.816;4.416;2023-07-28T00:26:41;18.70;99.90
25753;DHT22;13600;50.816;4.416;2023-07-28T00:29:07;18.70;99.90
25753;DHT22;13600;50.816;4.416;2023-07-28T00:31:33;18.70;99.90
25753;DHT22;13600;50.816;4.416;2023-07-28T00:33:59;18.80;99.90
25753;DHT22;13600;50.816;4.416;2023-07-28T00:36:25;18.70;99.90
25753;DHT22;13600;50.816;4.416;2023-07-28T00:38:50;18.70;99.90
25753;DHT22;13600;50.816;4.416;2023-07-28T00:41:16;18.80;99.90
25753;DHT22;13600;50.816;4.416;2023-07-28T00:43:42;18.80;99.90
25753;DHT22;13600;50.816;4.416;2023-07-28T00:46:09;18.90;99.90
25753;DHT22;13600;50.816;4.416;2023-07-28T00:48:35;18.80;99.90
25753;DHT22;13600;50.816;4.416;2023-07-28T00:51:01;18.80;99.90
25753;DHT22;13600;50.816;4.416;2023-07-28T00:53:26;18.70;99.90
25753;DHT22;13600;50.816;4.416;2023-07-28T00:55:52;18.70;99.90
25753;DHT22;13600;50.816;4.416;2023-07-28T00:58:19;18.80;99.90
25753;DHT22;13600;50.816;4.416;2023-07-28T01:00:44;18.90;99.90
25753;DHT22;13600;50.816;4.416;2023-07-28T01:03:10;18.90;99.90
25753;DHT22;13600;50.816;4.416;2023-07-28T01:05:44;18.80;99.90
25753;DHT22;13600;50.816;4.416;2023-07-28T01:11:00;18.90;99.90
25753;DHT22;13600;50.816;4.416;2023-07-28T01:13:25;18.90;99.90
25753;DHT22;13600;50.816;4.416;2023-07-28T01:15:51;18.90;99.90
25753;DHT22;13600;50.816;4.416;2023-07-28T01:18:16;18.90;99.90
25753;DHT22;13600;50.816;4.416;2023-07-28T01:20:42;18.90;99.90
25753;DHT22;13600;50.816;4.416;2023-07-28T01:23:23;18.80;99.90
25753;DHT22;13600;50.816;4.416;2023-07-28T01:26:09;18.90;99.90
25753;DHT22;13600;50.816;4.416;2023-07-28T01:28:36;18.90;99.90
25753;DHT22;13600;50.816;4.416;2023-07-28T01:31:04;18.90;99.90
25753;DHT22;13600;50.816;4.416;2023-07-28T01:33:30;18.90;99.90
25753;DHT22;13600;50.816;4.416;2023-07-28T01:35:55;18.90;99.90
25753;DHT22;13600;50.816;4.416;2023-07-28T01:38:21;18.80;99.90
25753;DHT22;13600;50.816;4.416;2023-07-28T01:40:47;18.80;99.90
25753;DHT22;13600;50.816;4.416;2023-07-28T01:43:12;18.90;99.90
25753;DHT22;13600;50.816;4.416;2023-07-28T01:45:38;18.90;99.90
25753;DHT22;13600;50.816;4.416;2023-07-28T01:48:04;18.90;99.90
25753;DHT22;13600;50.816;4.416;2023-07-28T01:50:30;18.80;99.90
25753;DHT22;13600;50.816;4.416;2023-07-28T01:52:55;18.80;99.90
25753;DHT22;13600;50.816;4.416;2023-07-28T01:55:21;18.90;99.90
25753;DHT22;13600;50.816;4.416;2023-07-28T01:57:56;18.80;99.90
25753;DHT22;13600;50.816;4.416;2023-07-28T02:00:22;18.90;99.90
25753;DHT22;13600;50.816;4.416;2023-07-28T02:02:48;19.00;99.90
25753;DHT22;13600;50.816;4.416;2023-07-28T02:05:14;18.90;99.90
25753;DHT22;13600;50.816;4.416;2023-07-28T02:07:39;18.90;99.90
25753;DHT22;13600;50.816;4.416;2023-07-28T02:10:05;18.90;99.90
25753;DHT22;13600;50.816;4.416;2023-07-28T02:12:31;19.00;99.90
25753;DHT22;13600;50.816;4.416;2023-07-28T02:14:56;18.90;99.90
25753;DHT22;13600;50.816;4.416;2023-07-28T02:17:22;18.80;99.90
25753;DHT22;13600;50.816;4.416;2023-07-28T02:19:48;18.80;99.90
25753;DHT22;13600;50.816;4.416;2023-07-28T02:22:13;18.90;99.90
25753;DHT22;13600;50.816;4.416;2023-07-28T02:24:39;18.90;99.90
25753;DHT22;13600;50.816;4.416;2023-07-28T02:27:05;19.00;99.90
25753;DHT22;13600;50.816;4.416;2023-07-28T02:29:31;18.90;99.90
25753;DHT22;13600;50.816;4.416;2023-07-28T02:31:57;18.90;99.90
25753;DHT22;13600;50.816;4.416;2023-07-28T02:34:22;19.00;99.90
25753;DHT22;13600;50.816;4.416;2023-07-28T02:36:48;19.00;99.90
25753;DHT22;13600;50.816;4.416;2023-07-28T02:39:13;18.90;99.90
25753;DHT22;13600;50.816;4.416;2023-07-28T02:41:39;19.00;99.90
25753;DHT22;13600;50.816;4.416;2023-07-28T02:44:04;19.00;99.90
25753;DHT22;13600;50.816;4.416;2023-07-28T02:46:30;19.00;99.90
25753;DHT22;13600;50.816;4.416;2023-07-28T02:48:57;19.10;99.90
25753;DHT22;13600;50.816;4.416;2023-07-28T02:51:22;19.10;99.90
25753;DHT22;13600;50.816;4.416;2023-07-28T02:53:48;19.10;99.90
25753;DHT22;13600;50.816;4.416;2023-07-28T02:56:13;19.10;99.90
25753;DHT22;13600;50.816;4.416;2023-07-28T02:58:39;19.10;99.90
25753;DHT22;13600;50.816;4.416;2023-07-28T03:01:04;19.00;99.90
25753;DHT22;13600;50.816;4.416;2023-07-28T03:03:30;19.00;99.90
25753;DHT22;13600;50.816;4.416;2023-07-28T03:05:56;19.10;99.90
25753;DHT22;13600;50.816;4.416;2023-07-28T03:08:21;19.20;99.90
25753;DHT22;13600;50.816;4.416;2023-07-28T03:10:47;19.10;99.90
25753;DHT22;13600;50.816;4.416;2023-07-28T03:13:13;19.00;99.90
25753;DHT22;13600;50.816;4.416;2023-07-28T03:15:38;18.90;99.90
25753;DHT22;13600;50.816;4.416;2023-07-28T03:18:04;18.90;99.90
25753;DHT22;13600;50.816;4.416;2023-07-28T03:20:30;18.90;99.90
25753;DHT22;13600;50.816;4.416;2023-07-28T03:22:55;18.90;99.90
25753;DHT22;13600;50.816;4.416;2023-07-28T03:25:21;18.90;99.90
25753;DHT22;13600;50.816;4.416;2023-07-28T03:27:48;18.80;99.90
25753;DHT22;13600;50.816;4.416;2023-07-28T03:30:13;18.90;99.90
25753;DHT22;13600;50.816;4.416;2023-07-28T03:32:39;19.00;99.90
25753;DHT22;13600;50.816;4.416;2023-07-28T03:35:05;18.90;99.90
25753;DHT22;13600;50.816;4.416;2023-07-28T03:37:32;19.00;99.90
25753;DHT22;13600;50.816;4.416;2023-07-28T03:39:57;19.10;99.90
25753;DHT22;13600;50.816;4.416;2023-07-28T03:42:23;19.10;99.90
25753;DHT22;13600;50.816;4.416;2023-07-28T03:44:49;19.10;99.90
25753;DHT22;13600;50.816;4.416;2023-07-28T03:47:14;19.10;99.90
25753;DHT22;13600;50.816;4.416;2023-07-28T03:49:40;19.10;99.90
25753;DHT22;13600;50.816;4.416;2023-07-28T03:52:06;19.00;99.90
25753;DHT22;13600;50.816;4.416;2023-07-28T03:54:31;19.00;99.90
25753;DHT22;13600;50.816;4.416;2023-07-28T03:56:57;19.10;99.90
25753;DHT22;13600;50.816;4.416;2023-07-28T03:59:22;19.10;99.90
25753;DHT22;13600;50.816;4.416;2023-07-28T04:01:48;19.00;99.90
25753;DHT22;13600;50.816;4.416;2023-07-28T04:04:14;19.00;99.90
25753;DHT22;13600;50.816;4.416;2023-07-28T04:06:46;19.10;99.90
25753;DHT22;13600;50.816;4.416;2023-07-28T04:09:15;19.10;99.90
25753;DHT22;13600;50.816;4.416;2023-07-28T04:11:41;18.90;99.90
25753;DHT22;13600;50.816;4.416;2023-07-28T04:14:07;18.90;99.90
25753;DHT22;13600;50.816;4.416;2023-07-28T04:16:33;19.00;99.90
25753;DHT22;13600;50.816;4.416;2023-07-28T04:18:58;19.00;99.90
25753;DHT22;13600;50.816;4.416;2023-07-28T04:21:24;18.90;99.90
25753;DHT22;13600;50.816;4.416;2023-07-28T04:23:50;18.90;99.90
25753;DHT22;13600;50.816;4.416;2023-07-28T04:26:17;19.00;99.90
25753;DHT22;13600;50.816;4.416;2023-07-28T04:28:43;18.90;99.90
25753;DHT22;13600;50.816;4.416;2023-07-28T04:31:08;19.10;99.90
25753;DHT22;13600;50.816;4.416;2023-07-28T04:33:34;19.10;99.90
25753;DHT22;13600;50.816;4.416;2023-07-28T04:36:03;19.20;99.90
25753;DHT22;13600;50.816;4.416;2023-07-28T04:38:28;19.10;99.90
25753;DHT22;13600;50.816;4.416;2023-07-28T04:40:54;19.10;99.90
25753;DHT22;13600;50.816;4.416;2023-07-28T04:43:20;19.10;99.90
25753;DHT22;13600;50.816;4.416;2023-07-28T04:45:45;19.20;99.90
25753;DHT22;13600;50.816;4.416;2023-07-28T04:48:11;19.20;99.90
25753;DHT22;13600;50.816;4.416;2023-07-28T04:50:37;19.20;99.90
25753;DHT22;13600;50.816;4.416;2023-07-28T04:53:03;19.30;99.90
25753;DHT22;13600;50.816;4.416;2023-07-28T04:55:28;19.30;99.90
25753;DHT22;13600;50.816;4.416;2023-07-28T04:57:55;19.30;99.90
25753;DHT22;13600;50.816;4.416;2023-07-28T05:00:21;19.30;99.90
25753;DHT22;13600;50.816;4.416;2023-07-28T05:02:46;19.30;99.90
25753;DHT22;13600;50.816;4.416;2023-07-28T05:05:12;19.30;99.90
25753;DHT22;13600;50.816;4.416;2023-07-28T05:07:37;19.30;99.90
25753;DHT22;13600;50.816;4.416;2023-07-28T05:10:03;19.30;99.90
25753;DHT22;13600;50.816;4.416;2023-07-28T05:12:29;19.40;99.90
25753;DHT22;13600;50.816;4.416;2023-07-28T05:14:54;19.40;99.90
25753;DHT22;13600;50.816;4.416;2023-07-28T05:17:20;19.50;99.90
25753;DHT22;13600;50.816;4.416;2023-07-28T05:19:45;19.40;99.90
25753;DHT22;13600;50.816;4.416;2023-07-28T05:22:11;19.40;99.90
25753;DHT22;13600;50.816;4.416;2023-07-28T05:24:37;19.40;99.90
25753;DHT22;13600;50.816;4.416;2023-07-28T05:27:02;19.60;99.90
25753;DHT22;13600;50.816;4.416;2023-07-28T05:29:28;19.60;99.90
25753;DHT22;13600;50.816;4.416;2023-07-28T05:31:53;19.70;99.90
25753;DHT22;13600;50.816;4.416;2023-07-28T05:34:19;19.70;99.90
25753;DHT22;13600;50.816;4.416;2023-07-28T05:36:44;19.80;99.90
25753;DHT22;13600;50.816;4.416;2023-07-28T05:39:10;19.70;99.90
25753;DHT22;13600;50.816;4.416;2023-07-28T05:41:36;19.60;99.90
25753;DHT22;13600;50.816;4.416;2023-07-28T05:44:03;19.60;99.90
25753;DHT22;13600;50.816;4.416;2023-07-28T05:46:29;19.70;99.90
25753;DHT22;13600;50.816;4.416;2023-07-28T05:48:55;19.90;99.90
25753;DHT22;13600;50.816;4.416;2023-07-28T05:51:22;19.80;99.90
25753;DHT22;13600;50.816;4.416;2023-07-28T05:53:47;19.70;99.90
25753;DHT22;13600;50.816;4.416;2023-07-28T05:56:13;19.80;99.90
25753;DHT22;13600;50.816;4.416;2023-07-28T05:58:39;19.80;99.90
25753;DHT22;13600;50.816;4.416;2023-07-28T06:01:04;19.80;99.90
25753;DHT22;13600;50.816;4.416;2023-07-28T06:03:30;19.80;99.90
25753;DHT22;13600;50.816;4.416;2023-07-28T06:05:56;19.80;99.90
25753;DHT22;13600;50.816;4.416;2023-07-28T06:08:22;19.90;99.90
25753;DHT22;13600;50.816;4.416;2023-07-28T06:10:47;19.90;99.90
25753;DHT22;13600;50.816;4.416;2023-07-28T06:13:13;19.90;99.90
25753;DHT22;13600;50.816;4.416;2023-07-28T06:15:39;19.90;99.90
25753;DHT22;13600;50.816;4.416;2023-07-28T06:18:05;20.00;99.90
25753;DHT22;13600;50.816;4.416;2023-07-28T06:20:31;20.00;99.90
25753;DHT22;13600;50.816;4.416;2023-07-28T06:22:56;20.10;99.90
25753;DHT22;13600;50.816;4.416;2023-07-28T06:25:22;20.10;99.90
25753;DHT22;13600;50.816;4.416;2023-07-28T06:27:48;20.10;99.90
25753;DHT22;13600;50.816;4.416;2023-07-28T06:30:13;20.10;99.90
25753;DHT22;13600;50.816;4.416;2023-07-28T06:32:39;20.10;99.90
25753;DHT22;13600;50.816;4.416;2023-07-28T06:35:05;20.10;99.90
25753;DHT22;13600;50.816;4.416;2023-07-28T06:37:33;20.10;99.90
25753;DHT22;13600;50.816;4.416;2023-07-28T06:39:59;20.20;99.90
25753;DHT22;13600;50.816;4.416;2023-07-28T06:42:24;20.20;99.90
25753;DHT22;13600;50.816;4.416;2023-07-28T06:44:51;20.10;99.90
25753;DHT22;13600;50.816;4.416;2023-07-28T06:47:18;20.10;99.90
25753;DHT22;13600;50.816;4.416;2023-07-28T06:49:44;20.10;99.90
25753;DHT22;13600;50.816;4.416;2023-07-28T06:52:10;20.10;99.90
25753;DHT22;13600;50.816;4.416;2023-07-28T06:54:35;20.00;99.90
25753;DHT22;13600;50.816;4.416;2023-07-28T06:57:01;20.20;99.90
25753;DHT22;13600;50.816;4.416;2023-07-28T06:59:27;20.20;99.90
25753;DHT22;13600;50.816;4.416;2023-07-28T07:01:52;20.30;99.90
25753;DHT22;13600;50.816;4.416;2023-07-28T07:04:19;20.30;99.90
25753;DHT22;13600;50.816;4.416;2023-07-28T07:06:44;20.30;99.90
25753;DHT22;13600;50.816;4.416;2023-07-28T07:09:10;20.30;99.90
25753;DHT22;13600;50.816;4.416;2023-07-28T07:11:40;20.30;99.90
25753;DHT22;13600;50.816;4.416;2023-07-28T07:14:06;20.40;99.90
25753;DHT22;13600;50.816;4.416;2023-07-28T07:16:34;20.50;99.90
25753;DHT22;13600;50.816;4.416;2023-07-28T07:19:00;20.50;99.90
25753;DHT22;13600;50.816;4.416;2023-07-28T07:21:27;20.40;99.90
25753;DHT22;13600;50.816;4.416;2023-07-28T07:23:53;20.60;99.90
25753;DHT22;13600;50.816;4.416;2023-07-28T07:26:19;20.60;99.90
25753;DHT22;13600;50.816;4.416;2023-07-28T07:28:45;20.70;99.90
25753;DHT22;13600;50.816;4.416;2023-07-28T07:31:14;20.60;99.90
25753;DHT22;13600;50.816;4.416;2023-07-28T07:33:41;20.60;99.90
25753;DHT22;13600;50.816;4.416;2023-07-28T07:36:18;20.50;99.90
25753;DHT22;13600;50.816;4.416;2023-07-28T07:38:45;20.40;99.90
25753;DHT22;13600;50.816;4.416;2023-07-28T07:41:12;20.40;99.90
25753;DHT22;13600;50.816;4.416;2023-07-28T07:43:38;20.50;99.90
25753;DHT22;13600;50.816;4.416;2023-07-28T07:46:04;20.40;99.90
25753;DHT22;13600;50.816;4.416;2023-07-28T07:48:30;20.50;99.90
25753;DHT22;13600;50.816;4.416;2023-07-28T07:50:56;20.50;99.90
25753;DHT22;13600;50.816;4.416;2023-07-28T07:53:22;20.70;99.90
25753;DHT22;13600;50.816;4.416;2023-07-28T07:55:48;20.70;99.90
25753;DHT22;13600;50.816;4.416;2023-07-28T07:58:14;20.90;99.90
25753;DHT22;13600;50.816;4.416;2023-07-28T08:00:40;21.10;99.90
25753;DHT22;13600;50.816;4.416;2023-07-28T08:03:06;21.20;99.90
25753;DHT22;13600;50.816;4.416;2023-07-28T08:05:32;21.20;99.90
25753;DHT22;13600;50.816;4.416;2023-07-28T08:07:57;21.20;99.90
25753;DHT22;13600;50.816;4.416;2023-07-28T08:10:23;21.00;99.90
25753;DHT22;13600;50.816;4.416;2023-07-28T08:12:49;20.90;99.90
25753;DHT22;13600;50.816;4.416;2023-07-28T08:15:15;20.90;99.90
25753;DHT22;13600;50.816;4.416;2023-07-28T08:17:40;21.10;99.90
25753;DHT22;13600;50.816;4.416;2023-07-28T08:20:07;21.20;99.90
25753;DHT22;13600;50.816;4.416;2023-07-28T08:22:34;21.20;99.90
25753;DHT22;13600;50.816;4.416;2023-07-28T08:25:00;21.40;99.90
25753;DHT22;13600;50.816;4.416;2023-07-28T08:27:25;21.70;99.90
25753;DHT22;13600;50.816;4.416;2023-07-28T08:29:51;22.10;99.90
25753;DHT22;13600;50.816;4.416;2023-07-28T08:32:17;22.40;99.90
25753;DHT22;13600;50.816;4.416;2023-07-28T08:34:43;22.70;99.90
25753;DHT22;13600;50.816;4.416;2023-07-28T08:37:09;22.90;99.90
25753;DHT22;13600;50.816;4.416;2023-07-28T08:39:34;23.20;99.90
25753;DHT22;13600;50.816;4.416;2023-07-28T08:42:03;22.80;99.90
25753;DHT22;13600;50.816;4.416;2023-07-28T08:44:31;22.70;99.90
25753;DHT22;13600;50.816;4.416;2023-07-28T08:46:59;22.50;99.90
25753;DHT22;13600;50.816;4.416;2023-07-28T08:49:25;22.50;99.90
25753;DHT22;13600;50.816;4.416;2023-07-28T08:51:52;22.60;99.90
25753;DHT22;13600;50.816;4.416;2023-07-28T08:54:22;22.80;99.90
25753;DHT22;13600;50.816;4.416;2023-07-28T08:56:48;22.90;99.90
25753;DHT22;13600;50.816;4.416;2023-07-28T08:59:21;22.60;99.90
25753;DHT22;13600;50.816;4.416;2023-07-28T09:01:50;22.70;99.90
25753;DHT22;13600;50.816;4.416;2023-07-28T09:04:16;22.70;99.90
25753;DHT22;13600;50.816;4.416;2023-07-28T09:06:45;22.70;99.90
25753;DHT22;13600;50.816;4.416;2023-07-28T09:09:11;22.70;99.90
25753;DHT22;13600;50.816;4.416;2023-07-28T09:11:51;22.60;99.90
25753;DHT22;13600;50.816;4.416;2023-07-28T09:14:18;22.70;99.90
25753;DHT22;13600;50.816;4.416;2023-07-28T09:16:45;22.80;99.90
25753;DHT22;13600;50.816;4.416;2023-07-28T09:19:11;22.60;99.90
25753;DHT22;13600;50.816;4.416;2023-07-28T09:21:42;22.50;99.90
25753;DHT22;13600;50.816;4.416;2023-07-28T09:24:12;22.60;99.90
25753;DHT22;13600;50.816;4.416;2023-07-28T09:26:44;22.70;99.90
25753;DHT22;13600;50.816;4.416;2023-07-28T09:29:20;22.60;99.90
25753;DHT22;13600;50.816;4.416;2023-07-28T09:31:47;22.40;99.90
25753;DHT22;13600;50.816;4.416;2023-07-28T09:34:25;22.10;99.90
25753;DHT22;13600;50.816;4.416;2023-07-28T09:36:53;21.90;99.90
25753;DHT22;13600;50.816;4.416;2023-07-28T09:39:20;21.90;99.90
25753;DHT22;13600;50.816;4.416;2023-07-28T09:41:46;21.90;99.90
25753;DHT22;13600;50.816;4.416;2023-07-28T09:44:14;22.00;99.90
25753;DHT22;13600;50.816;4.416;2023-07-28T09:46:55;22.20;99.90
25753;DHT22;13600;50.816;4.416;2023-07-28T09:49:28;22.40;99.90
25753;DHT22;13600;50.816;4.416;2023-07-28T09:52:04;22.40;99.90
25753;DHT22;13600;50.816;4.416;2023-07-28T09:54:30;22.60;99.90
25753;DHT22;13600;50.816;4.416;2023-07-28T09:56:59;23.00;99.90
25753;DHT22;13600;50.816;4.416;2023-07-28T09:59:35;23.10;99.90
25753;DHT22;13600;50.816;4.416;2023-07-28T10:02:01;23.30;99.90
25753;DHT22;13600;50.816;4.416;2023-07-28T10:04:27;23.80;99.90
25753;DHT22;13600;50.816;4.416;2023-07-28T10:06:54;24.30;99.90
25753;DHT22;13600;50.816;4.416;2023-07-28T10:09:25;25.40;99.90
25753;DHT22;13600;50.816;4.416;2023-07-28T10:11:52;26.90;99.90
25753;DHT22;13600;50.816;4.416;2023-07-28T10:14:30;27.70;99.90
25753;DHT22;13600;50.816;4.416;2023-07-28T10:17:00;27.00;99.90
25753;DHT22;13600;50.816;4.416;2023-07-28T10:19:27;26.30;99.90
25753;DHT22;13600;50.816;4.416;2023-07-28T10:22:12;25.60;99.90
25753;DHT22;13600;50.816;4.416;2023-07-28T10:24:58;25.30;99.90
25753;DHT22;13600;50.816;4.416;2023-07-28T10:27:36;24.80;99.90
25753;DHT22;13600;50.816;4.416;2023-07-28T10:30:04;24.40;99.90
25753;DHT22;13600;50.816;4.416;2023-07-28T10:32:37;24.30;99.90
25753;DHT22;13600;50.816;4.416;2023-07-28T10:37:46;25.30;99.90
25753;DHT22;13600;50.816;4.416;2023-07-28T10:40:27;25.80;99.90
25753;DHT22;13600;50.816;4.416;2023-07-28T10:42:54;26.20;99.90
25753;DHT22;13600;50.816;4.416;2023-07-28T10:45:21;26.80;99.90
25753;DHT22;13600;50.816;4.416;2023-07-28T10:47:49;27.10;99.90
25753;DHT22;13600;50.816;4.416;2023-07-28T10:50:15;27.60;99.90
25753;DHT22;13600;50.816;4.416;2023-07-28T10:52:43;28.00;99.90
25753;DHT22;13600;50.816;4.416;2023-07-28T10:55:20;28.50;99.90
25753;DHT22;13600;50.816;4.416;2023-07-28T10:57:48;28.50;99.90
25753;DHT22;13600;50.816;4.416;2023-07-28T11:00:16;27.80;99.90
25753;DHT22;13600;50.816;4.416;2023-07-28T11:02:46;27.20;99.90
25753;DHT22;13600;50.816;4.416;2023-07-28T11:05:29;26.30;99.90
25753;DHT22;13600;50.816;4.416;2023-07-28T11:08:00;25.50;99.90
25753;DHT22;13600;50.816;4.416;2023-07-28T11:10:31;25.90;99.90
25753;DHT22;13600;50.816;4.416;2023-07-28T11:13:01;26.40;99.90
25753;DHT22;13600;50.816;4.416;2023-07-28T11:15:27;27.60;99.90
25753;DHT22;13600;50.816;4.416;2023-07-28T11:17:52;28.60;99.90
25753;DHT22;13600;50.816;4.416;2023-07-28T11:20:26;28.90;99.90
25753;DHT22;13600;50.816;4.416;2023-07-28T11:22:58;29.60;99.90
25753;DHT22;13600;50.816;4.416;2023-07-28T11:25:26;29.90;99.90
25753;DHT22;13600;50.816;4.416;2023-07-28T11:27:52;30.00;99.90
25753;DHT22;13600;50.816;4.416;2023-07-28T11:30:19;30.40;99.90
25753;DHT22;13600;50.816;4.416;2023-07-28T11:32:50;29.90;99.90
25753;DHT22;13600;50.816;4.416;2023-07-28T11:35:17;29.40;99.90
25753;DHT22;13600;50.816;4.416;2023-07-28T11:37:45;28.40;99.90
25753;DHT22;13600;50.816;4.416;2023-07-28T11:40:11;27.80;99.90
25753;DHT22;13600;50.816;4.416;2023-07-28T11:42:40;28.10;99.90
25753;DHT22;13600;50.816;4.416;2023-07-28T11:45:07;29.10;99.90
25753;DHT22;13600;50.816;4.416;2023-07-28T11:47:34;30.60;99.90
25753;DHT22;13600;50.816;4.416;2023-07-28T11:50:01;30.00;99.90
25753;DHT22;13600;50.816;4.416;2023-07-28T11:52:34;29.30;99.90
25753;DHT22;13600;50.816;4.416;2023-07-28T11:55:06;29.10;99.90
25753;DHT22;13600;50.816;4.416;2023-07-28T11:57:32;29.00;99.90
25753;DHT22;13600;50.816;4.416;2023-07-28T11:59:59;29.70;99.90
25753;DHT22;13600;50.816;4.416;2023-07-28T12:02:29;30.40;99.90
25753;DHT22;13600;50.816;4.416;2023-07-28T12:04:55;31.70;99.90
25753;DHT22;13600;50.816;4.416;2023-07-28T12:07:33;31.60;99.90
25753;DHT22;13600;50.816;4.416;2023-07-28T12:10:03;31.20;99.90
25753;DHT22;13600;50.816;4.416;2023-07-28T12:12:39;32.50;99.90
25753;DHT22;13600;50.816;4.416;2023-07-28T12:15:28;31.80;99.90
25753;DHT22;13600;50.816;4.416;2023-07-28T12:20:46;29.90;99.90
25753;DHT22;13600;50.816;4.416;2023-07-28T12:23:22;29.10;99.90
25753;DHT22;13600;50.816;4.416;2023-07-28T12:25:49;28.90;99.90
25753;DHT22;13600;50.816;4.416;2023-07-28T12:28:21;29.80;99.90
25753;DHT22;13600;50.816;4.416;2023-07-28T12:30:46;29.90;99.90
25753;DHT22;13600;50.816;4.416;2023-07-28T12:33:14;31.00;99.90
25753;DHT22;13600;50.816;4.416;2023-07-28T12:35:40;32.80;99.90
25753;DHT22;13600;50.816;4.416;2023-07-28T12:38:06;34.10;99.90
25753;DHT22;13600;50.816;4.416;2023-07-28T12:40:32;35.40;97.60
25753;DHT22;13600;50.816;4.416;2023-07-28T12:43:00;36.30;93.80
25753;DHT22;13600;50.816;4.416;2023-07-28T12:45:26;36.60;93.60
25753;DHT22;13600;50.816;4.416;2023-07-28T12:47:52;37.00;91.20
25753;DHT22;13600;50.816;4.416;2023-07-28T12:50:19;36.50;90.20
25753;DHT22;13600;50.816;4.416;2023-07-28T12:52:46;35.70;91.70
25753;DHT22;13600;50.816;4.416;2023-07-28T12:55:12;36.60;91.80
25753;DHT22;13600;50.816;4.416;2023-07-28T12:57:37;36.90;89.30
25753;DHT22;13600;50.816;4.416;2023-07-28T13:00:04;36.70;85.60
25753;DHT22;13600;50.816;4.416;2023-07-28T13:02:39;35.50;87.10
25753;DHT22;13600;50.816;4.416;2023-07-28T13:05:05;34.10;90.50
25753;DHT22;13600;50.816;4.416;2023-07-28T13:07:31;32.80;91.90
25753;DHT22;13600;50.816;4.416;2023-07-28T13:09:56;31.50;95.70
25753;DHT22;13600;50.816;4.416;2023-07-28T13:12:23;31.00;98.60
25753;DHT22;13600;50.816;4.416;2023-07-28T13:14:48;30.60;99.90
25753;DHT22;13600;50.816;4.416;2023-07-28T13:17:14;30.10;99.90
25753;DHT22;13600;50.816;4.416;2023-07-28T13:19:42;29.50;99.90
25753;DHT22;13600;50.816;4.416;2023-07-28T13:22:07;29.00;99.90
25753;DHT22;13600;50.816;4.416;2023-07-28T13:24:33;28.90;99.90
25753;DHT22;13600;50.816;4.416;2023-07-28T13:26:58;28.50;99.90
25753;DHT22;13600;50.816;4.416;2023-07-28T13:29:24;27.90;99.90
25753;DHT22;13600;50.816;4.416;2023-07-28T13:31:50;27.60;99.90
25753;DHT22;13600;50.816;4.416;2023-07-28T13:34:16;27.40;99.90
25753;DHT22;13600;50.816;4.416;2023-07-28T13:36:42;27.20;99.90
25753;DHT22;13600;50.816;4.416;2023-07-28T13:39:09;27.20;99.90
25753;DHT22;13600;50.816;4.416;2023-07-28T13:41:35;27.70;99.90
25753;DHT22;13600;50.816;4.416;2023-07-28T13:44:00;28.80;99.90
25753;DHT22;13600;50.816;4.416;2023-07-28T13:46:26;29.60;99.90
25753;DHT22;13600;50.816;4.416;2023-07-28T13:48:51;31.20;99.90
25753;DHT22;13600;50.816;4.416;2023-07-28T13:51:17;32.70;99.30
25753;DHT22;13600;50.816;4.416;2023-07-28T13:53:43;34.00;94.40
25753;DHT22;13600;50.816;4.416;2023-07-28T13:56:08;35.50;92.30
25753;DHT22;13600;50.816;4.416;2023-07-28T13:58:34;36.60;90.40
25753;DHT22;13600;50.816;4.416;2023-07-28T14:00:59;35.80;87.00
25753;DHT22;13600;50.816;4.416;2023-07-28T14:03:25;34.80;86.30
25753;DHT22;13600;50.816;4.416;2023-07-28T14:05:51;33.80;90.70
25753;DHT22;13600;50.816;4.416;2023-07-28T14:08:17;33.40;91.60
25753;DHT22;13600;50.816;4.416;2023-07-28T14:10:45;32.90;91.80
25753;DHT22;13600;50.816;4.416;2023-07-28T14:13:12;32.50;92.60
25753;DHT22;13600;50.816;4.416;2023-07-28T14:15:38;32.10;93.80
25753;DHT22;13600;50.816;4.416;2023-07-28T14:18:03;31.70;95.00
25753;DHT22;13600;50.816;4.416;2023-07-28T14:20:29;31.10;95.80
25753;DHT22;13600;50.816;4.416;2023-07-28T14:22:55;30.60;97.30
25753;DHT22;13600;50.816;4.416;2023-07-28T14:25:21;30.60;98.50
25753;DHT22;13600;50.816;4.416;2023-07-28T14:27:46;30.30;98.20
25753;DHT22;13600;50.816;4.416;2023-07-28T14:30:12;30.30;99.40
25753;DHT22;13600;50.816;4.416;2023-07-28T14:32:38;30.30;99.90
25753;DHT22;13600;50.816;4.416;2023-07-28T14:35:04;30.20;99.10
25753;DHT22;13600;50.816;4.416;2023-07-28T14:37:30;31.10;98.70
25753;DHT22;13600;50.816;4.416;2023-07-28T14:39:55;32.10;96.70
25753;DHT22;13600;50.816;4.416;2023-07-28T14:42:21;32.60;94.70
25753;DHT22;13600;50.816;4.416;2023-07-28T14:44:46;33.50;93.80
25753;DHT22;13600;50.816;4.416;2023-07-28T14:47:12;33.80;92.30
25753;DHT22;13600;50.816;4.416;2023-07-28T14:49:37;34.70;91.70
25753;DHT22;13600;50.816;4.416;2023-07-28T14:52:03;35.40;91.00
25753;DHT22;13600;50.816;4.416;2023-07-28T14:54:29;35.20;89.90
25753;DHT22;13600;50.816;4.416;2023-07-28T14:56:54;35.60;87.70
25753;DHT22;13600;50.816;4.416;2023-07-28T14:59:20;35.70;88.70
25753;DHT22;13600;50.816;4.416;2023-07-28T15:01:45;35.40;85.30
25753;DHT22;13600;50.816;4.416;2023-07-28T15:04:12;35.10;88.40
25753;DHT22;13600;50.816;4.416;2023-07-28T15:06:39;35.50;86.10
25753;DHT22;13600;50.816;4.416;2023-07-28T15:09:05;35.70;85.30
25753;DHT22;13600;50.816;4.416;2023-07-28T15:11:31;35.40;85.00
25753;DHT22;13600;50.816;4.416;2023-07-28T15:13:57;35.30;85.20
25753;DHT22;13600;50.816;4.416;2023-07-28T15:16:22;35.20;85.30
25753;DHT22;13600;50.816;4.416;2023-07-28T15:18:48;35.00;85.00
25753;DHT22;13600;50.816;4.416;2023-07-28T15:21:14;34.20;87.70
25753;DHT22;13600;50.816;4.416;2023-07-28T15:23:39;33.40;88.60
25753;DHT22;13600;50.816;4.416;2023-07-28T15:26:05;32.80;90.80
25753;DHT22;13600;50.816;4.416;2023-07-28T15:28:31;32.40;91.70
25753;DHT22;13600;50.816;4.416;2023-07-28T15:30:56;31.90;91.60
25753;DHT22;13600;50.816;4.416;2023-07-28T15:33:22;31.70;92.30
25753;DHT22;13600;50.816;4.416;2023-07-28T15:35:54;31.50;92.60
25753;DHT22;13600;50.816;4.416;2023-07-28T15:38:20;31.30;94.10